Time;durP1;ratioP1;P1;durP2;ratioP2;P2;SDS_P1;SDS_P2;PMS_P1;PMS_P2;Temp;Humidity;BMP_temperature;BMP_pressure;BME280_temperature;BME280_humidity;BME280_pressure;Samples;Min_cycle;Max_cycle;Signal;HPM_P1;HPM_P2
2023/03/22 00:00:16;;;;;;;8.65;2.75;;;10.20;99.90;;;;;;5065072;28;20398;-87
2023/03/22 00:02:42;;;;;;;7.20;2.95;;;10.10;99.90;;;;;;5082482;28;20078;-86
2023/03/22 00:05:08;;;;;;;10.52;3.42;;;10.10;99.90;;;;;;5066511;28;20028;-86
2023/03/22 00:07:34;;;;;;;8.82;2.85;;;10.20;99.90;;;;;;5080637;28;20029;-86
2023/03/22 00:10:00;;;;;;;6.78;2.65;;;10.10;99.90;;;;;;5061918;28;20115;-86
2023/03/22 00:12:25;;;;;;;6.22;2.53;;;10.10;99.90;;;;;;5062104;28;20087;-86
2023/03/22 00:14:52;;;;;;;7.97;2.72;;;10.00;99.90;;;;;;5071039;28;20438;-84
2023/03/22 00:17:18;;;;;;;5.50;2.55;;;10.00;99.90;;;;;;5079847;28;20043;-85
2023/03/22 00:19:43;;;;;;;7.90;3.40;;;10.00;99.90;;;;;;5064635;28;20036;-85
2023/03/22 00:22:10;;;;;;;5.57;2.70;;;9.90;99.90;;;;;;5061759;28;20033;-84
2023/03/22 00:24:36;;;;;;;6.85;2.63;;;9.80;99.90;;;;;;5062331;28;20090;-85
2023/03/22 00:27:02;;;;;;;6.00;2.20;;;9.80;99.90;;;;;;5060644;28;20055;-86
2023/03/22 00:29:28;;;;;;;6.47;2.30;;;9.80;99.90;;;;;;5064954;28;20059;-85
2023/03/22 00:31:55;;;;;;;5.47;2.25;;;9.80;99.90;;;;;;5064639;28;20055;-84
2023/03/22 00:34:20;;;;;;;5.93;2.00;;;9.80;99.90;;;;;;5065075;28;20063;-85
2023/03/22 00:36:47;;;;;;;5.10;1.63;;;9.70;99.90;;;;;;5065894;28;20133;-85
2023/03/22 00:39:13;;;;;;;4.88;1.90;;;9.70;99.90;;;;;;5064582;28;20478;-85
2023/03/22 00:41:38;;;;;;;6.43;2.30;;;9.60;99.90;;;;;;5062456;28;20047;-85
2023/03/22 00:44:05;;;;;;;7.97;2.70;;;9.60;99.90;;;;;;5064424;28;20066;-85
2023/03/22 00:46:30;;;;;;;5.90;2.65;;;9.60;99.90;;;;;;5064377;28;20488;-85
2023/03/22 00:48:56;;;;;;;5.85;2.30;;;9.60;99.90;;;;;;5062688;28;20036;-84
2023/03/22 00:51:21;;;;;;;6.95;2.42;;;9.60;99.90;;;;;;5061026;28;20020;-85
2023/03/22 00:53:51;;;;;;;7.13;2.60;;;9.60;99.90;;;;;;5064439;28;20116;-84
2023/03/22 00:56:17;;;;;;;5.15;2.17;;;9.50;99.90;;;;;;5063486;28;20106;-85
2023/03/22 00:58:43;;;;;;;4.22;2.10;;;9.50;99.90;;;;;;5041965;28;20021;-85
2023/03/22 01:01:12;;;;;;;5.70;2.53;;;9.40;99.90;;;;;;5064091;28;20079;-85
2023/03/22 01:03:38;;;;;;;6.45;2.58;;;9.50;99.90;;;;;;5078063;28;20044;-85
2023/03/22 01:06:04;;;;;;;6.28;2.42;;;9.40;99.90;;;;;;5079670;28;20024;-84
2023/03/22 01:08:32;;;;;;;4.90;2.45;;;9.40;99.90;;;;;;5062371;28;20024;-84
2023/03/22 01:10:58;;;;;;;6.30;2.60;;;9.40;99.90;;;;;;5059717;28;20474;-83
2023/03/22 01:13:24;;;;;;;5.43;2.20;;;9.40;99.90;;;;;;5063402;28;20034;-84
2023/03/22 01:15:50;;;;;;;6.97;2.80;;;9.40;99.90;;;;;;5079805;28;20035;-84
2023/03/22 01:18:16;;;;;;;6.97;2.83;;;9.40;99.90;;;;;;5062374;28;20048;-86
2023/03/22 01:20:42;;;;;;;5.80;2.65;;;9.40;99.90;;;;;;5063587;28;20162;-85
2023/03/22 01:23:07;;;;;;;6.70;3.08;;;9.40;99.90;;;;;;5059905;28;20020;-85
2023/03/22 01:25:33;;;;;;;6.05;2.75;;;9.40;99.90;;;;;;5065271;28;20059;-85
2023/03/22 01:28:01;;;;;;;4.60;2.40;;;9.40;99.90;;;;;;5057781;28;20040;-85
2023/03/22 01:30:27;;;;;;;6.30;2.83;;;9.40;99.90;;;;;;5062939;28;20028;-86
2023/03/22 01:32:53;;;;;;;8.70;3.03;;;9.40;99.90;;;;;;5064789;28;20036;-85
2023/03/22 01:35:19;;;;;;;9.20;3.30;;;9.40;99.90;;;;;;5058939;28;20024;-84
2023/03/22 01:37:44;;;;;;;7.75;2.90;;;9.40;99.90;;;;;;5069367;28;20043;-84
2023/03/22 01:40:12;;;;;;;8.10;3.80;;;9.40;99.90;;;;;;5062141;28;20581;-83
2023/03/22 01:42:37;;;;;;;6.47;3.22;;;9.40;99.90;;;;;;5057473;28;20551;-84
2023/03/22 01:45:30;;;;;;;7.97;3.10;;;9.50;99.90;;;;;;5061212;28;20036;-83
2023/03/22 01:48:00;;;;;;;6.53;2.90;;;9.50;99.90;;;;;;5062180;28;20064;-83
2023/03/22 01:50:27;;;;;;;6.43;3.38;;;9.50;99.90;;;;;;5064504;28;20024;-84
2023/03/22 01:52:55;;;;;;;10.65;3.72;;;9.50;99.90;;;;;;5065256;28;20025;-86
2023/03/22 01:55:22;;;;;;;9.13;4.22;;;9.60;99.90;;;;;;5064531;28;20117;-85
2023/03/22 01:57:49;;;;;;;8.02;4.80;;;9.60;99.90;;;;;;5059017;28;20100;-84
2023/03/22 02:00:17;;;;;;;9.18;4.75;;;9.70;99.90;;;;;;5064570;28;20071;-85
2023/03/22 02:02:50;;;;;;;10.80;4.43;;;9.80;99.90;;;;;;5063885;28;20021;-85
2023/03/22 02:05:16;;;;;;;10.07;4.93;;;9.80;99.90;;;;;;5064457;28;20097;-87
2023/03/22 02:07:42;;;;;;;13.07;4.95;;;9.90;99.90;;;;;;5065194;28;20025;-86
2023/03/22 02:10:15;;;;;;;12.90;5.72;;;10.00;99.90;;;;;;5067975;28;20414;-88
2023/03/22 02:12:56;;;;;;;12.32;5.60;;;10.00;99.90;;;;;;5062804;28;20377;-86
2023/03/22 02:15:30;;;;;;;10.63;6.30;;;10.10;99.90;;;;;;5067667;28;20531;-85
2023/03/22 02:18:05;;;;;;;11.88;6.93;;;10.20;99.90;;;;;;5068342;28;20035;-87
2023/03/22 02:21:08;;;;;;;12.32;7.15;;;10.20;99.90;;;;;;5066917;28;20032;-86
2023/03/22 02:23:57;;;;;;;11.68;7.53;;;10.30;99.90;;;;;;5066789;28;20089;-86
2023/03/22 02:26:58;;;;;;;12.57;7.57;;;10.40;99.90;;;;;;5067798;28;20108;-85
2023/03/22 02:29:51;;;;;;;15.00;9.13;;;10.40;99.90;;;;;;5059817;28;20048;-85
2023/03/22 02:32:41;;;;;;;11.90;7.63;;;10.40;99.90;;;;;;5062968;28;20027;-86
2023/03/22 02:35:30;;;;;;;16.77;9.98;;;10.40;99.90;;;;;;5082419;28;20040;-86
2023/03/22 02:38:19;;;;;;;15.93;10.15;;;10.40;99.90;;;;;;5062562;28;20039;-86
2023/03/22 02:41:05;;;;;;;14.02;9.80;;;10.50;99.90;;;;;;5066925;28;20024;-86
2023/03/22 02:43:45;;;;;;;15.70;10.80;;;10.50;99.90;;;;;;5081843;28;20524;-86
2023/03/22 02:46:36;;;;;;;14.88;10.30;;;10.50;99.90;;;;;;5062110;28;20067;-85
2023/03/22 02:49:15;;;;;;;19.88;11.60;;;10.50;99.90;;;;;;5060101;28;20135;-86
2023/03/22 02:51:45;;;;;;;15.35;10.95;;;10.50;99.90;;;;;;5061761;28;20028;-85
2023/03/22 02:54:30;;;;;;;15.18;11.00;;;10.60;99.90;;;;;;5082959;28;20094;-85
2023/03/22 02:57:07;;;;;;;13.88;10.75;;;10.60;99.90;;;;;;5060961;28;20125;-86
2023/03/22 02:59:37;;;;;;;13.05;10.57;;;10.60;99.90;;;;;;5060444;28;20021;-85
2023/03/22 03:02:04;;;;;;;19.80;12.90;;;10.60;99.90;;;;;;5081700;28;20020;-86
2023/03/22 03:04:33;;;;;;;18.73;11.95;;;10.60;99.90;;;;;;5082092;28;20048;-85
2023/03/22 03:07:08;;;;;;;15.85;11.93;;;10.60;99.90;;;;;;5066027;28;20024;-86
2023/03/22 03:09:36;;;;;;;16.92;12.32;;;10.60;99.90;;;;;;5067176;28;20039;-85
2023/03/22 03:12:07;;;;;;;17.45;11.40;;;10.60;99.90;;;;;;5067208;28;20059;-86
2023/03/22 03:14:33;;;;;;;15.43;10.43;;;10.60;99.90;;;;;;5083062;28;20028;-85
2023/03/22 03:17:05;;;;;;;15.52;11.25;;;10.60;99.90;;;;;;5067078;28;20349;-85
2023/03/22 03:19:54;;;;;;;15.40;9.75;;;10.60;99.90;;;;;;5066952;28;20024;-85
2023/03/22 03:22:45;;;;;;;14.07;10.48;;;10.60;99.90;;;;;;5064577;28;20032;-84
2023/03/22 03:25:37;;;;;;;15.98;11.15;;;10.60;99.90;;;;;;5063075;28;20032;-85
2023/03/22 03:28:02;;;;;;;15.85;10.40;;;10.60;99.90;;;;;;5067426;28;20027;-86
2023/03/22 03:30:48;;;;;;;14.07;10.07;;;10.50;99.90;;;;;;5066099;28;20028;-86
2023/03/22 03:33:18;;;;;;;12.75;9.85;;;10.50;99.90;;;;;;5061754;28;20542;-86
2023/03/22 03:35:52;;;;;;;14.63;10.65;;;10.50;99.90;;;;;;5066064;28;20020;-85
2023/03/22 03:38:24;;;;;;;14.73;10.50;;;10.50;99.90;;;;;;5064641;28;20040;-85
2023/03/22 03:40:54;;;;;;;14.00;10.32;;;10.50;99.90;;;;;;5067607;28;20029;-85
2023/03/22 03:43:21;;;;;;;14.15;10.05;;;10.50;99.90;;;;;;5060444;28;20507;-86
2023/03/22 03:45:47;;;;;;;14.38;9.60;;;10.50;99.90;;;;;;5060930;28;20044;-86
2023/03/22 03:48:18;;;;;;;13.48;9.35;;;10.50;99.90;;;;;;5065339;28;20083;-87
2023/03/22 03:50:45;;;;;;;12.85;8.65;;;10.50;99.90;;;;;;5067292;28;20021;-87
2023/03/22 03:53:11;;;;;;;14.30;9.48;;;10.50;99.90;;;;;;5066261;28;20124;-86
2023/03/22 03:55:36;;;;;;;11.98;8.50;;;10.40;99.90;;;;;;5081935;28;20107;-86
2023/03/22 03:58:02;;;;;;;14.32;9.07;;;10.50;99.90;;;;;;5061467;28;20048;-86
2023/03/22 04:00:27;;;;;;;14.60;9.70;;;10.40;99.90;;;;;;5066726;28;20058;-85
2023/03/22 04:02:53;;;;;;;11.55;7.90;;;10.40;99.90;;;;;;5081201;28;20426;-85
2023/03/22 04:05:19;;;;;;;13.68;9.32;;;10.30;99.90;;;;;;5066148;28;20036;-85
2023/03/22 04:07:44;;;;;;;11.70;7.55;;;10.30;99.90;;;;;;5071575;28;20104;-85
2023/03/22 04:10:10;;;;;;;10.95;7.35;;;10.20;99.90;;;;;;5064972;28;20089;-85
2023/03/22 04:12:35;;;;;;;10.43;7.43;;;10.20;99.90;;;;;;5066724;28;20402;-86
2023/03/22 04:15:01;;;;;;;14.18;8.32;;;10.20;99.90;;;;;;5066242;28;20115;-86
2023/03/22 04:17:28;;;;;;;12.90;7.95;;;10.20;99.90;;;;;;5063662;28;20020;-85
2023/03/22 04:19:55;;;;;;;10.82;7.43;;;10.20;99.90;;;;;;5067956;28;22249;-85
2023/03/22 04:22:21;;;;;;;11.18;7.10;;;10.20;99.90;;;;;;5081778;28;20031;-85
2023/03/22 04:24:48;;;;;;;11.13;7.43;;;10.10;99.90;;;;;;5080602;28;20044;-85
2023/03/22 04:27:24;;;;;;;10.70;6.32;;;10.10;99.90;;;;;;5065883;28;20108;-86
2023/03/22 04:29:49;;;;;;;10.63;6.45;;;10.10;99.90;;;;;;5062566;28;20036;-86
2023/03/22 04:32:17;;;;;;;10.93;6.07;;;10.10;99.90;;;;;;5065102;28;20025;-86
2023/03/22 04:34:46;;;;;;;9.45;5.90;;;10.00;99.90;;;;;;5067378;28;20026;-86
2023/03/22 04:37:12;;;;;;;10.90;6.35;;;10.00;99.90;;;;;;5065682;28;20016;-85
2023/03/22 04:39:38;;;;;;;10.13;5.82;;;10.00;99.90;;;;;;5066544;28;20029;-86
2023/03/22 04:42:04;;;;;;;8.73;5.70;;;10.00;99.90;;;;;;5063562;28;20112;-86
2023/03/22 04:44:30;;;;;;;13.00;6.75;;;10.00;99.90;;;;;;5065217;28;20434;-85
2023/03/22 04:46:55;;;;;;;11.02;6.10;;;9.90;99.90;;;;;;5079270;28;20029;-85
2023/03/22 04:49:21;;;;;;;8.93;5.75;;;9.90;99.90;;;;;;5067253;28;20868;-86
2023/03/22 04:51:46;;;;;;;10.15;6.43;;;9.90;99.90;;;;;;5065815;28;20470;-86
2023/03/22 04:54:12;;;;;;;12.15;5.88;;;9.80;99.90;;;;;;5065366;28;20048;-85
2023/03/22 04:56:38;;;;;;;10.50;6.38;;;9.90;99.90;;;;;;5066519;28;20032;-86
2023/03/22 04:59:03;;;;;;;11.45;6.18;;;9.80;99.90;;;;;;5063694;28;20029;-87
2023/03/22 05:01:34;;;;;;;10.15;6.47;;;9.80;99.90;;;;;;5067189;28;20455;-86
2023/03/22 05:03:59;;;;;;;8.98;5.63;;;9.80;99.90;;;;;;5068431;28;20410;-88
2023/03/22 05:06:25;;;;;;;11.75;6.38;;;9.80;99.90;;;;;;5062128;28;20016;-87
2023/03/22 05:08:51;;;;;;;8.68;5.22;;;9.80;99.90;;;;;;5067865;28;20055;-87
2023/03/22 05:11:19;;;;;;;7.15;5.15;;;9.80;99.90;;;;;;5064767;28;20092;-88
2023/03/22 05:13:44;;;;;;;10.85;5.00;;;9.90;99.90;;;;;;5066710;28;20024;-87
2023/03/22 05:16:10;;;;;;;7.65;4.80;;;9.80;99.90;;;;;;5070317;28;20021;-88
2023/03/22 05:18:41;;;;;;;10.35;5.22;;;9.90;99.90;;;;;;5063231;28;20032;-86
2023/03/22 05:21:14;;;;;;;10.55;5.20;;;9.90;99.90;;;;;;5084274;28;20062;-87
2023/03/22 05:23:41;;;;;;;9.75;5.80;;;9.90;99.90;;;;;;5062543;28;20032;-87
2023/03/22 05:26:07;;;;;;;7.80;5.60;;;10.00;99.90;;;;;;5063870;28;20021;-87
2023/03/22 05:28:34;;;;;;;10.15;4.97;;;10.00;99.90;;;;;;5062039;28;20421;-87
2023/03/22 05:31:00;;;;;;;6.95;4.78;;;10.00;99.90;;;;;;5063164;28;20029;-85
2023/03/22 05:33:26;;;;;;;8.00;4.60;;;10.00;99.90;;;;;;5064016;28;20077;-85
2023/03/22 05:35:52;;;;;;;8.43;5.05;;;10.00;99.90;;;;;;5078242;28;20093;-85
2023/03/22 05:38:18;;;;;;;8.25;4.88;;;9.90;99.90;;;;;;5056542;28;20070;-86
2023/03/22 05:40:46;;;;;;;10.00;5.07;;;10.00;99.90;;;;;;5059531;28;20021;-87
2023/03/22 05:43:12;;;;;;;10.05;5.03;;;9.90;99.90;;;;;;5061020;28;20510;-87
2023/03/22 05:45:38;;;;;;;8.80;4.68;;;9.90;99.90;;;;;;5058022;28;20464;-87
2023/03/22 05:48:04;;;;;;;7.60;4.50;;;9.90;99.90;;;;;;5065770;28;20025;-88
2023/03/22 05:50:30;;;;;;;6.60;4.38;;;9.80;99.90;;;;;;5064434;28;20486;-88
2023/03/22 05:52:56;;;;;;;8.27;4.07;;;9.80;99.90;;;;;;5063932;28;20027;-87
2023/03/22 05:55:22;;;;;;;8.07;3.88;;;9.80;99.90;;;;;;5060716;28;20040;-86
2023/03/22 05:57:50;;;;;;;11.20;4.10;;;9.80;99.90;;;;;;5059190;28;20028;-87
2023/03/22 06:00:16;;;;;;;8.23;4.40;;;9.80;99.90;;;;;;5062752;28;20037;-86
2023/03/22 06:02:45;;;;;;;8.40;4.38;;;9.80;99.90;;;;;;5057288;28;20394;-88
2023/03/22 06:05:12;;;;;;;8.77;4.28;;;9.80;99.90;;;;;;5058133;28;21264;-85
2023/03/22 06:07:38;;;;;;;7.03;3.63;;;9.80;99.90;;;;;;5055368;28;20454;-86
2023/03/22 06:10:06;;;;;;;7.40;3.90;;;9.80;99.90;;;;;;5077434;28;20803;-86
2023/03/22 06:12:32;;;;;;;8.65;4.50;;;9.80;99.90;;;;;;5062812;28;20029;-86
2023/03/22 06:14:58;;;;;;;9.30;4.07;;;9.70;99.90;;;;;;5057568;28;20065;-85
2023/03/22 06:17:23;;;;;;;9.27;4.15;;;9.80;99.90;;;;;;5060800;28;20017;-86
2023/03/22 06:19:49;;;;;;;7.65;3.65;;;9.70;99.90;;;;;;5077615;28;20032;-85
2023/03/22 06:22:15;;;;;;;8.10;3.78;;;9.80;99.90;;;;;;5053257;28;20024;-84
2023/03/22 06:24:41;;;;;;;7.93;3.30;;;9.80;99.90;;;;;;5053552;28;20048;-85
2023/03/22 06:27:10;;;;;;;8.30;3.63;;;9.80;99.90;;;;;;5077766;28;20109;-85
2023/03/22 06:29:36;;;;;;;9.13;3.90;;;9.80;99.90;;;;;;5061465;28;20509;-85
2023/03/22 06:32:02;;;;;;;11.35;3.97;;;9.80;99.90;;;;;;5055382;28;20111;-86
2023/03/22 06:34:28;;;;;;;6.93;3.13;;;9.80;99.90;;;;;;5061028;28;20395;-85
2023/03/22 06:36:54;;;;;;;9.85;4.35;;;9.80;99.90;;;;;;5062240;28;20115;-85
2023/03/22 06:39:20;;;;;;;11.63;4.35;;;9.80;99.90;;;;;;5061836;28;20112;-84
2023/03/22 06:41:45;;;;;;;8.55;3.05;;;9.80;99.90;;;;;;5059223;28;20041;-85
2023/03/22 06:44:11;;;;;;;7.90;3.13;;;9.80;99.90;;;;;;5063381;28;20032;-85
2023/03/22 06:46:37;;;;;;;8.23;3.97;;;9.80;99.90;;;;;;5059815;28;20042;-84
2023/03/22 06:49:03;;;;;;;7.32;3.33;;;9.80;99.90;;;;;;5056939;28;20104;-84
2023/03/22 06:51:29;;;;;;;6.35;2.88;;;9.90;99.90;;;;;;5064627;28;20024;-84
2023/03/22 06:53:54;;;;;;;10.23;3.45;;;9.90;99.90;;;;;;5072947;28;20108;-86
2023/03/22 06:56:20;;;;;;;8.40;2.60;;;9.90;99.90;;;;;;5067163;28;20191;-86
2023/03/22 06:58:48;;;;;;;8.10;3.85;;;10.00;99.90;;;;;;5068250;28;20086;-85
2023/03/22 07:01:13;;;;;;;8.45;3.13;;;10.20;99.90;;;;;;5063361;28;20044;-85
2023/03/22 07:03:39;;;;;;;8.63;2.65;;;10.30;99.90;;;;;;5066870;28;20418;-85
2023/03/22 07:06:07;;;;;;;8.05;3.13;;;10.40;99.90;;;;;;5065465;28;20135;-84
2023/03/22 07:08:34;;;;;;;8.60;3.00;;;10.50;99.90;;;;;;5068816;28;20056;-87
2023/03/22 07:11:00;;;;;;;8.70;3.42;;;10.60;99.90;;;;;;5063051;28;20044;-85
2023/03/22 07:13:28;;;;;;;10.60;3.53;;;10.70;99.90;;;;;;5070730;28;20054;-85
2023/03/22 07:15:58;;;;;;;6.78;3.00;;;10.80;99.90;;;;;;5069775;28;20394;-87
2023/03/22 07:18:24;;;;;;;9.38;3.03;;;10.90;99.90;;;;;;5063827;28;20028;-86
2023/03/22 07:20:50;;;;;;;6.90;2.70;;;10.90;99.90;;;;;;5065432;28;20035;-85
2023/03/22 07:23:16;;;;;;;9.63;3.85;;;11.00;99.90;;;;;;5062881;28;20131;-85
2023/03/22 07:25:43;;;;;;;7.55;3.28;;;11.10;99.90;;;;;;5068547;28;20035;-86
2023/03/22 07:28:11;;;;;;;8.70;2.92;;;11.20;99.90;;;;;;5070036;28;20032;-86
2023/03/22 07:30:38;;;;;;;8.75;3.25;;;11.20;99.90;;;;;;5070803;28;20021;-86
2023/03/22 07:33:05;;;;;;;5.97;3.40;;;11.20;99.90;;;;;;5063581;28;20020;-87
2023/03/22 07:35:31;;;;;;;9.48;3.28;;;11.20;99.90;;;;;;5065696;28;20056;-86
2023/03/22 07:37:57;;;;;;;11.15;3.20;;;11.20;99.90;;;;;;5062217;28;20124;-87
2023/03/22 07:40:26;;;;;;;5.78;2.88;;;11.20;99.90;;;;;;5060703;28;20474;-86
2023/03/22 07:42:51;;;;;;;7.32;3.00;;;11.20;99.90;;;;;;5064846;28;20032;-86
2023/03/22 07:45:19;;;;;;;8.13;3.38;;;11.20;99.90;;;;;;5066582;28;20035;-86
2023/03/22 07:47:45;;;;;;;9.77;3.25;;;11.20;99.90;;;;;;5065059;28;20458;-85
2023/03/22 07:50:12;;;;;;;8.13;3.20;;;11.20;99.90;;;;;;5062364;28;20024;-85
2023/03/22 07:52:41;;;;;;;10.13;3.05;;;11.20;99.90;;;;;;5065299;28;20404;-85
2023/03/22 07:55:09;;;;;;;6.65;2.83;;;11.20;99.90;;;;;;5065670;28;20099;-85
2023/03/22 07:57:36;;;;;;;7.43;2.80;;;11.20;99.90;;;;;;5061374;28;20119;-87
2023/03/22 08:00:04;;;;;;;11.25;3.45;;;11.20;99.90;;;;;;5083224;28;20017;-86
2023/03/22 08:02:30;;;;;;;9.65;3.50;;;11.30;99.90;;;;;;5068381;28;20036;-86
2023/03/22 08:05:04;;;;;;;9.40;3.50;;;11.40;99.90;;;;;;5065380;28;20041;-87
2023/03/22 08:07:30;;;;;;;7.53;3.80;;;11.40;99.90;;;;;;5065075;28;20040;-88
2023/03/22 08:09:56;;;;;;;7.20;3.30;;;11.40;99.90;;;;;;5066656;28;20107;-85
2023/03/22 08:12:21;;;;;;;9.13;3.28;;;11.40;99.90;;;;;;5069114;28;20059;-86
2023/03/22 08:14:49;;;;;;;9.35;3.78;;;11.50;99.90;;;;;;5069269;28;20085;-87
2023/03/22 08:17:16;;;;;;;6.13;2.90;;;11.50;99.90;;;;;;5062980;28;20150;-87
2023/03/22 08:19:42;;;;;;;8.82;3.47;;;11.50;99.90;;;;;;5064792;28;20089;-86
2023/03/22 08:22:07;;;;;;;6.03;2.97;;;11.60;99.90;;;;;;5068114;28;20401;-88
2023/03/22 08:24:33;;;;;;;8.57;3.15;;;11.60;99.90;;;;;;5060002;28;20037;-89
2023/03/22 08:26:59;;;;;;;9.82;3.45;;;11.80;99.90;;;;;;5073362;28;20028;-85
2023/03/22 08:29:25;;;;;;;6.05;2.97;;;11.90;99.90;;;;;;5066540;28;20028;-87
2023/03/22 08:31:53;;;;;;;8.05;3.28;;;11.90;99.90;;;;;;5073853;28;20458;-88
2023/03/22 08:34:22;;;;;;;10.95;3.33;;;12.00;99.90;;;;;;5083173;28;20069;-87
2023/03/22 08:36:47;;;;;;;9.10;3.58;;;12.00;99.90;;;;;;5066056;28;20013;-86
2023/03/22 08:39:13;;;;;;;6.00;2.78;;;12.00;99.90;;;;;;5066899;28;20100;-87
2023/03/22 08:41:39;;;;;;;8.60;3.88;;;12.10;99.90;;;;;;5071628;28;20429;-87
2023/03/22 08:44:05;;;;;;;8.60;3.55;;;12.10;99.90;;;;;;5083606;28;20060;-89
2023/03/22 08:46:31;;;;;;;6.22;2.90;;;12.10;99.90;;;;;;5070605;28;20115;-87
2023/03/22 08:48:59;;;;;;;8.23;3.72;;;12.20;99.90;;;;;;5088284;28;20447;-89
2023/03/22 08:51:25;;;;;;;7.93;3.15;;;12.30;99.90;;;;;;5075654;28;20916;-87
2023/03/22 08:53:50;;;;;;;8.13;3.67;;;12.40;99.90;;;;;;5067179;28;20033;-89
2023/03/22 08:56:16;;;;;;;9.20;3.67;;;12.40;99.90;;;;;;5067191;28;20020;-88
2023/03/22 08:58:45;;;;;;;7.53;3.08;;;12.50;99.90;;;;;;5060580;28;21983;-86
2023/03/22 09:01:15;;;;;;;7.25;3.40;;;12.60;99.90;;;;;;5060290;28;20028;-84
2023/03/22 09:03:41;;;;;;;9.02;3.47;;;12.80;99.90;;;;;;5055491;28;20677;-85
2023/03/22 09:06:09;;;;;;;8.85;3.13;;;12.90;99.90;;;;;;5078124;28;20024;-86
2023/03/22 09:08:35;;;;;;;9.38;4.07;;;13.00;99.90;;;;;;5058471;28;20557;-85
2023/03/22 09:11:01;;;;;;;8.43;3.95;;;13.00;99.90;;;;;;5060409;28;20025;-86
2023/03/22 09:13:31;;;;;;;9.15;3.42;;;13.10;99.90;;;;;;5061227;28;20105;-85
2023/03/22 09:15:56;;;;;;;6.47;2.75;;;13.10;99.90;;;;;;5061642;28;20038;-87
2023/03/22 09:18:27;;;;;;;11.88;2.78;;;13.10;99.90;;;;;;5057993;28;20020;-86
2023/03/22 09:20:53;;;;;;;8.85;2.78;;;13.20;99.90;;;;;;5063361;28;20041;-85
2023/03/22 09:23:19;;;;;;;8.13;2.33;;;13.20;99.90;;;;;;5061108;28;20032;-86
2023/03/22 09:25:46;;;;;;;7.00;2.85;;;13.30;99.90;;;;;;5060155;28;20029;-87
2023/03/22 09:28:12;;;;;;;9.40;2.67;;;13.30;99.90;;;;;;5062303;28;20478;-86
2023/03/22 09:30:38;;;;;;;8.30;2.55;;;13.30;99.90;;;;;;5063175;28;20024;-88
2023/03/22 09:33:05;;;;;;;7.38;2.35;;;13.20;99.90;;;;;;5057463;28;20024;-87
2023/03/22 09:35:31;;;;;;;10.57;2.08;;;13.30;99.90;;;;;;5063233;28;20086;-88
2023/03/22 09:37:58;;;;;;;7.15;2.33;;;13.20;99.90;;;;;;5058180;28;20481;-86
2023/03/22 09:40:36;;;;;;;5.60;2.00;;;13.20;99.90;;;;;;5059715;28;20025;-86
2023/03/22 09:43:05;;;;;;;6.90;2.08;;;13.20;99.90;;;;;;5063659;28;20029;-89
2023/03/22 09:45:39;;;;;;;8.50;2.13;;;13.10;99.90;;;;;;5062082;28;20103;-87
2023/03/22 09:48:21;;;;;;;7.50;2.10;;;13.10;99.90;;;;;;5058278;28;20040;-89
2023/03/22 09:50:50;;;;;;;5.63;2.10;;;13.00;99.90;;;;;;5059860;28;20525;-87
2023/03/22 09:53:17;;;;;;;8.02;2.22;;;12.90;99.90;;;;;;5060103;28;20056;-89
2023/03/22 09:55:55;;;;;;;7.68;1.67;;;12.70;99.90;;;;;;5057137;28;20027;-87
2023/03/22 09:58:31;;;;;;;8.23;1.98;;;12.60;99.90;;;;;;5061731;28;20128;-87
2023/03/22 10:01:10;;;;;;;7.60;1.92;;;12.60;99.90;;;;;;5078114;28;20033;-87
2023/03/22 10:04:11;;;;;;;4.85;1.40;;;12.60;99.90;;;;;;5061993;28;20047;-85
2023/03/22 10:06:38;;;;;;;6.22;1.73;;;12.50;99.90;;;;;;5061980;28;20040;-86
2023/03/22 10:09:18;;;;;;;6.13;2.15;;;12.50;99.90;;;;;;5055388;28;20110;-86
2023/03/22 10:11:50;;;;;;;7.40;1.60;;;12.50;99.90;;;;;;5061362;28;20778;-86
2023/03/22 10:14:39;;;;;;;6.80;1.80;;;12.60;99.90;;;;;;5061497;28;20020;-87
2023/03/22 10:17:13;;;;;;;8.10;1.80;;;12.60;99.90;;;;;;5056957;28;20063;-86
2023/03/22 10:19:59;;;;;;;4.57;1.52;;;12.60;99.90;;;;;;5060950;28;20036;-84
2023/03/22 10:22:32;;;;;;;7.80;1.88;;;12.60;99.90;;;;;;5064507;28;20035;-88
2023/03/22 10:24:59;;;;;;;7.88;1.80;;;12.50;99.90;;;;;;5062348;28;20036;-85
2023/03/22 10:27:27;;;;;;;7.57;1.98;;;12.40;99.90;;;;;;5065080;28;20039;-88
2023/03/22 10:30:01;;;;;;;5.80;1.75;;;12.30;99.90;;;;;;5065503;28;20013;-87
2023/03/22 10:32:47;;;;;;;6.05;2.03;;;12.10;99.90;;;;;;5063241;28;20025;-86
2023/03/22 10:35:18;;;;;;;9.13;2.13;;;11.90;99.90;;;;;;5067564;28;20226;-86
2023/03/22 10:37:59;;;;;;;7.32;1.88;;;11.70;99.90;;;;;;5061475;28;20031;-87
2023/03/22 10:40:28;;;;;;;5.97;1.70;;;11.60;99.90;;;;;;5068369;28;20033;-86
2023/03/22 10:42:58;;;;;;;8.02;1.67;;;11.50;99.90;;;;;;5083717;28;20020;-85
2023/03/22 10:45:25;;;;;;;8.93;1.77;;;11.30;99.90;;;;;;5068108;28;20484;-86
2023/03/22 10:48:02;;;;;;;8.57;2.20;;;11.20;99.90;;;;;;5071500;28;20043;-86
2023/03/22 10:50:36;;;;;;;6.95;2.30;;;11.10;99.90;;;;;;5066718;28;20032;-87
2023/03/22 10:53:30;;;;;;;8.13;2.10;;;11.00;99.90;;;;;;5063899;28;20028;-87
2023/03/22 10:55:56;;;;;;;7.43;1.92;;;10.90;99.90;;;;;;5062530;28;20024;-85
2023/03/22 10:58:28;;;;;;;8.20;2.13;;;10.90;99.90;;;;;;5062067;28;20028;-86
2023/03/22 11:01:05;;;;;;;4.90;2.10;;;10.90;99.90;;;;;;5066207;28;20040;-86
2023/03/22 11:03:33;;;;;;;10.75;2.50;;;10.90;99.90;;;;;;5066796;28;20083;-86
2023/03/22 11:06:11;;;;;;;6.35;1.90;;;10.90;99.90;;;;;;5061960;28;20162;-84
2023/03/22 11:08:47;;;;;;;7.75;2.65;;;10.90;99.90;;;;;;5058535;28;20025;-85
2023/03/22 11:11:19;;;;;;;7.03;1.90;;;10.90;99.90;;;;;;5061015;28;20474;-87
2023/03/22 11:14:20;;;;;;;3.50;1.70;;;10.80;99.90;;;;;;5063809;28;20035;-86
2023/03/22 11:16:49;;;;;;;8.50;2.50;;;10.80;99.90;;;;;;5063447;28;20456;-85
2023/03/22 11:19:22;;;;;;;8.73;2.15;;;10.80;99.90;;;;;;5063686;28;20046;-86
2023/03/22 11:21:51;;;;;;;7.85;2.80;;;10.80;99.90;;;;;;5081386;28;20066;-85
2023/03/22 11:24:17;;;;;;;9.32;2.42;;;10.80;99.90;;;;;;5068505;28;20086;-88
2023/03/22 11:27:21;;;;;;;8.18;2.28;;;10.80;99.90;;;;;;5062452;28;20052;-84
2023/03/22 11:29:57;;;;;;;7.68;2.53;;;10.80;99.90;;;;;;5053206;28;20032;-88
2023/03/22 11:32:28;;;;;;;5.97;2.25;;;10.80;99.90;;;;;;5068850;28;20032;-88
2023/03/22 11:35:04;;;;;;;4.68;2.17;;;10.80;99.90;;;;;;5065885;28;20025;-87
2023/03/22 11:37:41;;;;;;;5.25;2.28;;;10.80;99.90;;;;;;5067461;28;20390;-88
2023/03/22 11:40:14;;;;;;;5.38;1.85;;;10.90;99.90;;;;;;5069510;28;20174;-87
2023/03/22 11:42:47;;;;;;;6.00;1.90;;;11.00;99.90;;;;;;5068229;28;20109;-86
2023/03/22 11:45:17;;;;;;;5.45;2.00;;;11.10;99.90;;;;;;5068994;28;20062;-87
2023/03/22 11:47:43;;;;;;;8.75;2.67;;;11.20;99.90;;;;;;5085358;28;20020;-88
2023/03/22 11:50:26;;;;;;;7.85;2.63;;;11.20;99.90;;;;;;5072562;28;20073;-86
2023/03/22 11:52:52;;;;;;;5.07;1.97;;;11.20;99.90;;;;;;5067473;28;20024;-86
2023/03/22 11:55:19;;;;;;;7.43;2.03;;;11.20;99.90;;;;;;5062745;28;20626;-84
2023/03/22 11:57:48;;;;;;;4.90;2.08;;;11.20;99.90;;;;;;5065195;28;20262;-87
2023/03/22 12:00:22;;;;;;;7.90;1.50;;;11.30;99.90;;;;;;5061630;28;20155;-89
2023/03/22 12:02:53;;;;;;;;;;;11.30;99.90;;;;;;5068362;28;20024;-87
2023/03/22 12:05:33;;;;;;;6.60;2.10;;;11.40;99.90;;;;;;5082269;28;20347;-86
2023/03/22 12:08:22;;;;;;;5.68;2.17;;;11.40;99.90;;;;;;5065141;28;20567;-84
2023/03/22 12:10:53;;;;;;;9.88;2.75;;;11.50;99.90;;;;;;5066027;28;20024;-86
2023/03/22 12:13:42;;;;;;;5.80;2.00;;;11.50;99.90;;;;;;5058975;28;20029;-86
2023/03/22 12:16:11;;;;;;;6.25;1.90;;;11.50;99.90;;;;;;5059966;28;20090;-86
2023/03/22 12:18:58;;;;;;;10.27;2.70;;;11.50;99.90;;;;;;5082212;28;20028;-85
2023/03/22 12:21:24;;;;;;;5.75;2.35;;;11.50;99.90;;;;;;5061904;28;20036;-86
2023/03/22 12:23:50;;;;;;;8.27;2.13;;;11.50;99.90;;;;;;5063533;28;20605;-88
2023/03/22 12:26:20;;;;;;;5.47;2.15;;;11.50;99.90;;;;;;5069813;28;20036;-89
2023/03/22 12:29:02;;;;;;;5.57;1.80;;;11.50;99.90;;;;;;5082587;28;20025;-87
2023/03/22 12:31:39;;;;;;;6.03;1.90;;;11.50;99.90;;;;;;5064706;28;20059;-85
2023/03/22 12:34:12;;;;;;;5.47;1.90;;;11.50;99.90;;;;;;5065987;28;20035;-87
2023/03/22 12:36:42;;;;;;;3.88;1.40;;;11.50;99.90;;;;;;5058577;28;20024;-86
2023/03/22 12:39:18;;;;;;;7.43;2.30;;;11.50;99.90;;;;;;5080769;28;20024;-88
2023/03/22 12:41:48;;;;;;;5.30;1.90;;;11.60;99.90;;;;;;5066210;28;20535;-86
2023/03/22 12:44:25;;;;;;;4.28;1.70;;;11.60;99.90;;;;;;5059816;28;20041;-88
2023/03/22 12:47:23;;;;;;;4.65;1.60;;;11.60;99.90;;;;;;5065444;28;20071;-86
2023/03/22 12:50:10;;;;;;;2.78;1.40;;;11.70;99.90;;;;;;5058363;28;21205;-86
2023/03/22 12:52:55;;;;;;;4.50;1.77;;;11.70;99.90;;;;;;5080743;28;20040;-87
2023/03/22 12:55:25;;;;;;;5.00;2.00;;;11.70;99.90;;;;;;5056763;28;20020;-85
2023/03/22 12:57:53;;;;;;;3.83;1.60;;;11.70;99.90;;;;;;5065137;28;20043;-86
2023/03/22 13:00:26;;;;;;;5.13;1.73;;;11.70;99.90;;;;;;5058606;28;20548;-85